sensor_id;sensor_type;location;lat;lon;timestamp;P1;durP1;ratioP1;P2;durP2;ratioP2
27428;SDS011;14881;48.092;11.574;2023-03-14T00:02:26;1.58;;;1.10;;
27428;SDS011;14881;48.092;11.574;2023-03-14T00:04:54;0.80;;;0.80;;
27428;SDS011;14881;48.092;11.574;2023-03-14T00:07:24;1.48;;;1.38;;
27428;SDS011;14881;48.092;11.574;2023-03-14T00:09:52;0.80;;;0.80;;
27428;SDS011;14881;48.092;11.574;2023-03-14T00:12:22;1.50;;;0.80;;
27428;SDS011;14881;48.092;11.574;2023-03-14T00:14:50;1.77;;;0.95;;
27428;SDS011;14881;48.092;11.574;2023-03-14T00:17:18;1.13;;;1.02;;
27428;SDS011;14881;48.092;11.574;2023-03-14T00:19:45;2.33;;;0.90;;
27428;SDS011;14881;48.092;11.574;2023-03-14T00:22:13;2.47;;;1.13;;
27428;SDS011;14881;48.092;11.574;2023-03-14T00:24:42;2.17;;;0.93;;
27428;SDS011;14881;48.092;11.574;2023-03-14T00:27:10;4.25;;;1.02;;
27428;SDS011;14881;48.092;11.574;2023-03-14T00:29:38;1.23;;;0.95;;
27428;SDS011;14881;48.092;11.574;2023-03-14T00:32:05;1.10;;;0.98;;
27428;SDS011;14881;48.092;11.574;2023-03-14T00:34:34;1.33;;;0.95;;
27428;SDS011;14881;48.092;11.574;2023-03-14T00:37:01;0.93;;;0.93;;
27428;SDS011;14881;48.092;11.574;2023-03-14T00:39:29;0.90;;;0.82;;
27428;SDS011;14881;48.092;11.574;2023-03-14T00:41:58;1.02;;;0.90;;
27428;SDS011;14881;48.092;11.574;2023-03-14T00:44:26;1.00;;;1.00;;
27428;SDS011;14881;48.092;11.574;2023-03-14T00:46:54;1.40;;;0.90;;
27428;SDS011;14881;48.092;11.574;2023-03-14T00:49:25;1.05;;;0.82;;
27428;SDS011;14881;48.092;11.574;2023-03-14T00:51:53;0.90;;;0.90;;
27428;SDS011;14881;48.092;11.574;2023-03-14T00:54:21;0.98;;;0.90;;
27428;SDS011;14881;48.092;11.574;2023-03-14T00:56:51;1.85;;;0.70;;
27428;SDS011;14881;48.092;11.574;2023-03-14T00:59:20;0.70;;;0.70;;
27428;SDS011;14881;48.092;11.574;2023-03-14T01:01:49;0.77;;;0.77;;
27428;SDS011;14881;48.092;11.574;2023-03-14T01:04:19;2.08;;;0.95;;
27428;SDS011;14881;48.092;11.574;2023-03-14T01:06:47;0.90;;;0.73;;
27428;SDS011;14881;48.092;11.574;2023-03-14T01:09:14;1.40;;;1.02;;
27428;SDS011;14881;48.092;11.574;2023-03-14T01:11:49;2.03;;;0.70;;
27428;SDS011;14881;48.092;11.574;2023-03-14T01:14:17;1.05;;;0.50;;
27428;SDS011;14881;48.092;11.574;2023-03-14T01:16:48;0.60;;;0.60;;
27428;SDS011;14881;48.092;11.574;2023-03-14T01:19:16;1.30;;;0.80;;
27428;SDS011;14881;48.092;11.574;2023-03-14T01:21:44;1.10;;;0.63;;
27428;SDS011;14881;48.092;11.574;2023-03-14T01:24:12;1.17;;;0.57;;
27428;SDS011;14881;48.092;11.574;2023-03-14T01:26:39;0.95;;;0.60;;
27428;SDS011;14881;48.092;11.574;2023-03-14T01:29:12;2.28;;;0.60;;
27428;SDS011;14881;48.092;11.574;2023-03-14T01:31:40;1.38;;;0.85;;
27428;SDS011;14881;48.092;11.574;2023-03-14T01:34:13;0.95;;;0.70;;
27428;SDS011;14881;48.092;11.574;2023-03-14T01:36:41;0.80;;;0.80;;
27428;SDS011;14881;48.092;11.574;2023-03-14T01:39:08;1.80;;;0.70;;
27428;SDS011;14881;48.092;11.574;2023-03-14T01:41:36;2.55;;;0.90;;
27428;SDS011;14881;48.092;11.574;2023-03-14T01:44:04;1.67;;;0.88;;
27428;SDS011;14881;48.092;11.574;2023-03-14T01:46:33;4.03;;;0.98;;
27428;SDS011;14881;48.092;11.574;2023-03-14T01:49:09;1.20;;;0.98;;
27428;SDS011;14881;48.092;11.574;2023-03-14T01:51:47;0.70;;;0.70;;
27428;SDS011;14881;48.092;11.574;2023-03-14T01:54:19;5.07;;;1.35;;
27428;SDS011;14881;48.092;11.574;2023-03-14T01:56:52;3.00;;;1.00;;
27428;SDS011;14881;48.092;11.574;2023-03-14T01:59:23;2.90;;;1.15;;
27428;SDS011;14881;48.092;11.574;2023-03-14T02:01:53;3.80;;;1.77;;
27428;SDS011;14881;48.092;11.574;2023-03-14T02:04:24;3.47;;;1.70;;
27428;SDS011;14881;48.092;11.574;2023-03-14T02:07:00;4.32;;;2.20;;
27428;SDS011;14881;48.092;11.574;2023-03-14T02:09:34;1.83;;;1.60;;
27428;SDS011;14881;48.092;11.574;2023-03-14T02:12:03;4.57;;;1.65;;
27428;SDS011;14881;48.092;11.574;2023-03-14T02:14:34;2.05;;;1.42;;
27428;SDS011;14881;48.092;11.574;2023-03-14T02:17:03;2.10;;;0.90;;
27428;SDS011;14881;48.092;11.574;2023-03-14T02:19:40;1.17;;;1.08;;
27428;SDS011;14881;48.092;11.574;2023-03-14T02:22:20;1.92;;;1.00;;
27428;SDS011;14881;48.092;11.574;2023-03-14T02:24:50;2.67;;;0.90;;
27428;SDS011;14881;48.092;11.574;2023-03-14T02:27:31;3.88;;;1.17;;
27428;SDS011;14881;48.092;11.574;2023-03-14T02:30:04;0.75;;;0.75;;
27428;SDS011;14881;48.092;11.574;2023-03-14T02:32:36;0.80;;;0.80;;
27428;SDS011;14881;48.092;11.574;2023-03-14T02:35:08;1.50;;;0.63;;
27428;SDS011;14881;48.092;11.574;2023-03-14T02:37:40;1.30;;;0.75;;
27428;SDS011;14881;48.092;11.574;2023-03-14T02:40:11;1.00;;;0.50;;
27428;SDS011;14881;48.092;11.574;2023-03-14T02:42:42;1.02;;;0.85;;
27428;SDS011;14881;48.092;11.574;2023-03-14T02:45:30;0.60;;;0.60;;
27428;SDS011;14881;48.092;11.574;2023-03-14T02:48:05;0.63;;;0.63;;
27428;SDS011;14881;48.092;11.574;2023-03-14T02:50:36;2.03;;;0.60;;
27428;SDS011;14881;48.092;11.574;2023-03-14T02:53:04;1.70;;;0.80;;
27428;SDS011;14881;48.092;11.574;2023-03-14T02:55:32;0.75;;;0.68;;
27428;SDS011;14881;48.092;11.574;2023-03-14T02:58:02;1.80;;;1.02;;
27428;SDS011;14881;48.092;11.574;2023-03-14T03:00:29;0.80;;;0.70;;
27428;SDS011;14881;48.092;11.574;2023-03-14T03:02:57;0.70;;;0.70;;
27428;SDS011;14881;48.092;11.574;2023-03-14T03:05:25;4.50;;;0.63;;
27428;SDS011;14881;48.092;11.574;2023-03-14T03:07:53;1.20;;;0.77;;
27428;SDS011;14881;48.092;11.574;2023-03-14T03:10:23;0.50;;;0.50;;
27428;SDS011;14881;48.092;11.574;2023-03-14T03:12:52;0.60;;;0.60;;
27428;SDS011;14881;48.092;11.574;2023-03-14T03:15:24;1.13;;;0.40;;
27428;SDS011;14881;48.092;11.574;2023-03-14T03:17:56;0.32;;;0.32;;
27428;SDS011;14881;48.092;11.574;2023-03-14T03:20:26;1.00;;;0.50;;
27428;SDS011;14881;48.092;11.574;2023-03-14T03:22:59;2.63;;;0.60;;
27428;SDS011;14881;48.092;11.574;2023-03-14T03:25:27;0.70;;;0.70;;
27428;SDS011;14881;48.092;11.574;2023-03-14T03:27:55;0.50;;;0.50;;
27428;SDS011;14881;48.092;11.574;2023-03-14T03:30:24;1.23;;;0.80;;
27428;SDS011;14881;48.092;11.574;2023-03-14T03:32:52;0.50;;;0.50;;
27428;SDS011;14881;48.092;11.574;2023-03-14T03:35:20;0.95;;;0.43;;
27428;SDS011;14881;48.092;11.574;2023-03-14T03:37:48;0.85;;;0.52;;
27428;SDS011;14881;48.092;11.574;2023-03-14T03:40:16;0.30;;;0.30;;
27428;SDS011;14881;48.092;11.574;2023-03-14T03:42:46;0.28;;;0.28;;
27428;SDS011;14881;48.092;11.574;2023-03-14T03:45:14;0.40;;;0.40;;
27428;SDS011;14881;48.092;11.574;2023-03-14T03:47:46;0.55;;;0.55;;
27428;SDS011;14881;48.092;11.574;2023-03-14T03:50:13;0.30;;;0.30;;
27428;SDS011;14881;48.092;11.574;2023-03-14T03:52:41;0.50;;;0.50;;
27428;SDS011;14881;48.092;11.574;2023-03-14T03:55:09;0.75;;;0.68;;
27428;SDS011;14881;48.092;11.574;2023-03-14T03:57:37;0.60;;;0.57;;
27428;SDS011;14881;48.092;11.574;2023-03-14T04:00:06;0.85;;;0.45;;
27428;SDS011;14881;48.092;11.574;2023-03-14T04:02:38;1.35;;;0.32;;
27428;SDS011;14881;48.092;11.574;2023-03-14T04:05:08;0.60;;;0.38;;
27428;SDS011;14881;48.092;11.574;2023-03-14T04:07:35;0.47;;;0.45;;
27428;SDS011;14881;48.092;11.574;2023-03-14T04:10:04;0.60;;;0.60;;
27428;SDS011;14881;48.092;11.574;2023-03-14T04:12:35;2.35;;;0.50;;
27428;SDS011;14881;48.092;11.574;2023-03-14T04:15:03;0.50;;;0.50;;
27428;SDS011;14881;48.092;11.574;2023-03-14T04:17:31;0.30;;;0.30;;
27428;SDS011;14881;48.092;11.574;2023-03-14T04:20:01;2.80;;;0.45;;
27428;SDS011;14881;48.092;11.574;2023-03-14T04:22:34;0.45;;;0.45;;
27428;SDS011;14881;48.092;11.574;2023-03-14T04:25:02;0.95;;;0.40;;
27428;SDS011;14881;48.092;11.574;2023-03-14T04:27:30;0.50;;;0.50;;
27428;SDS011;14881;48.092;11.574;2023-03-14T04:29:58;0.50;;;0.40;;
27428;SDS011;14881;48.092;11.574;2023-03-14T04:32:26;2.30;;;0.30;;
27428;SDS011;14881;48.092;11.574;2023-03-14T04:34:53;1.05;;;0.30;;
27428;SDS011;14881;48.092;11.574;2023-03-14T04:37:21;0.63;;;0.43;;
27428;SDS011;14881;48.092;11.574;2023-03-14T04:39:50;0.38;;;0.38;;
27428;SDS011;14881;48.092;11.574;2023-03-14T04:42:18;0.40;;;0.40;;
27428;SDS011;14881;48.092;11.574;2023-03-14T04:44:46;0.55;;;0.38;;
27428;SDS011;14881;48.092;11.574;2023-03-14T04:47:15;0.30;;;0.30;;
27428;SDS011;14881;48.092;11.574;2023-03-14T04:49:43;0.38;;;0.30;;
27428;SDS011;14881;48.092;11.574;2023-03-14T04:52:11;0.50;;;0.50;;
27428;SDS011;14881;48.092;11.574;2023-03-14T04:54:38;1.25;;;0.20;;
27428;SDS011;14881;48.092;11.574;2023-03-14T04:57:07;0.40;;;0.40;;
27428;SDS011;14881;48.092;11.574;2023-03-14T04:59:36;0.40;;;0.35;;
27428;SDS011;14881;48.092;11.574;2023-03-14T05:02:03;0.45;;;0.45;;
27428;SDS011;14881;48.092;11.574;2023-03-14T05:04:31;0.55;;;0.38;;
27428;SDS011;14881;48.092;11.574;2023-03-14T05:07:00;0.35;;;0.35;;
27428;SDS011;14881;48.092;11.574;2023-03-14T05:09:27;0.50;;;0.50;;
27428;SDS011;14881;48.092;11.574;2023-03-14T05:11:58;0.30;;;0.30;;
27428;SDS011;14881;48.092;11.574;2023-03-14T05:14:27;0.75;;;0.40;;
27428;SDS011;14881;48.092;11.574;2023-03-14T05:16:55;0.30;;;0.30;;
27428;SDS011;14881;48.092;11.574;2023-03-14T05:19:23;0.43;;;0.43;;
27428;SDS011;14881;48.092;11.574;2023-03-14T05:21:53;0.30;;;0.30;;
27428;SDS011;14881;48.092;11.574;2023-03-14T05:24:21;0.63;;;0.40;;
27428;SDS011;14881;48.092;11.574;2023-03-14T05:26:49;0.30;;;0.30;;
27428;SDS011;14881;48.092;11.574;2023-03-14T05:29:17;0.40;;;0.40;;
27428;SDS011;14881;48.092;11.574;2023-03-14T05:31:46;0.40;;;0.40;;
27428;SDS011;14881;48.092;11.574;2023-03-14T05:34:14;0.30;;;0.30;;
27428;SDS011;14881;48.092;11.574;2023-03-14T05:36:41;2.08;;;0.40;;
27428;SDS011;14881;48.092;11.574;2023-03-14T05:39:09;0.30;;;0.30;;
27428;SDS011;14881;48.092;11.574;2023-03-14T05:41:37;1.58;;;0.45;;
27428;SDS011;14881;48.092;11.574;2023-03-14T05:44:04;0.50;;;0.40;;
27428;SDS011;14881;48.092;11.574;2023-03-14T05:46:32;0.52;;;0.52;;
27428;SDS011;14881;48.092;11.574;2023-03-14T05:49:01;1.65;;;0.38;;
27428;SDS011;14881;48.092;11.574;2023-03-14T05:51:31;1.00;;;0.40;;
27428;SDS011;14881;48.092;11.574;2023-03-14T05:54:01;0.57;;;0.47;;
27428;SDS011;14881;48.092;11.574;2023-03-14T05:56:29;0.50;;;0.50;;
27428;SDS011;14881;48.092;11.574;2023-03-14T05:58:59;0.40;;;0.40;;
27428;SDS011;14881;48.092;11.574;2023-03-14T06:01:29;0.95;;;0.80;;
27428;SDS011;14881;48.092;11.574;2023-03-14T06:03:57;0.52;;;0.50;;
27428;SDS011;14881;48.092;11.574;2023-03-14T06:06:32;0.47;;;0.47;;
27428;SDS011;14881;48.092;11.574;2023-03-14T06:09:05;3.08;;;2.25;;
27428;SDS011;14881;48.092;11.574;2023-03-14T06:11:33;8.57;;;5.97;;
27428;SDS011;14881;48.092;11.574;2023-03-14T06:14:03;4.03;;;2.67;;
27428;SDS011;14881;48.092;11.574;2023-03-14T06:16:31;1.40;;;1.30;;
27428;SDS011;14881;48.092;11.574;2023-03-14T06:18:59;0.80;;;0.80;;
27428;SDS011;14881;48.092;11.574;2023-03-14T06:21:26;0.40;;;0.40;;
27428;SDS011;14881;48.092;11.574;2023-03-14T06:23:55;0.43;;;0.40;;
27428;SDS011;14881;48.092;11.574;2023-03-14T06:26:23;0.50;;;0.50;;
27428;SDS011;14881;48.092;11.574;2023-03-14T06:28:51;0.50;;;0.30;;
27428;SDS011;14881;48.092;11.574;2023-03-14T06:31:19;0.63;;;0.38;;
27428;SDS011;14881;48.092;11.574;2023-03-14T06:33:47;0.40;;;0.40;;
27428;SDS011;14881;48.092;11.574;2023-03-14T06:36:15;0.77;;;0.50;;
27428;SDS011;14881;48.092;11.574;2023-03-14T06:38:48;0.55;;;0.55;;
27428;SDS011;14881;48.092;11.574;2023-03-14T06:41:17;0.50;;;0.50;;
27428;SDS011;14881;48.092;11.574;2023-03-14T06:43:45;0.50;;;0.38;;
27428;SDS011;14881;48.092;11.574;2023-03-14T06:46:13;0.30;;;0.30;;
27428;SDS011;14881;48.092;11.574;2023-03-14T06:48:41;0.68;;;0.45;;
27428;SDS011;14881;48.092;11.574;2023-03-14T06:51:09;0.45;;;0.45;;
27428;SDS011;14881;48.092;11.574;2023-03-14T06:53:37;1.42;;;0.60;;
27428;SDS011;14881;48.092;11.574;2023-03-14T06:56:05;0.45;;;0.45;;
27428;SDS011;14881;48.092;11.574;2023-03-14T06:58:35;0.50;;;0.50;;
27428;SDS011;14881;48.092;11.574;2023-03-14T07:01:03;0.50;;;0.50;;
27428;SDS011;14881;48.092;11.574;2023-03-14T07:03:31;1.17;;;0.60;;
27428;SDS011;14881;48.092;11.574;2023-03-14T07:05:59;0.70;;;0.57;;
27428;SDS011;14881;48.092;11.574;2023-03-14T07:08:26;0.40;;;0.40;;
27428;SDS011;14881;48.092;11.574;2023-03-14T07:10:55;0.50;;;0.50;;
27428;SDS011;14881;48.092;11.574;2023-03-14T07:13:23;1.10;;;1.00;;
27428;SDS011;14881;48.092;11.574;2023-03-14T07:15:52;1.95;;;1.70;;
27428;SDS011;14881;48.092;11.574;2023-03-14T07:18:20;7.18;;;5.03;;
27428;SDS011;14881;48.092;11.574;2023-03-14T07:20:48;6.93;;;5.00;;
27428;SDS011;14881;48.092;11.574;2023-03-14T07:23:16;3.33;;;2.70;;
27428;SDS011;14881;48.092;11.574;2023-03-14T07:25:47;2.17;;;1.98;;
27428;SDS011;14881;48.092;11.574;2023-03-14T07:28:14;1.67;;;1.58;;
27428;SDS011;14881;48.092;11.574;2023-03-14T07:30:45;1.40;;;0.80;;
27428;SDS011;14881;48.092;11.574;2023-03-14T07:33:15;0.50;;;0.50;;
27428;SDS011;14881;48.092;11.574;2023-03-14T07:35:43;0.73;;;0.70;;
27428;SDS011;14881;48.092;11.574;2023-03-14T07:38:11;1.08;;;0.90;;
27428;SDS011;14881;48.092;11.574;2023-03-14T07:40:39;0.60;;;0.60;;
27428;SDS011;14881;48.092;11.574;2023-03-14T07:43:06;0.60;;;0.60;;
27428;SDS011;14881;48.092;11.574;2023-03-14T07:45:34;0.70;;;0.70;;
27428;SDS011;14881;48.092;11.574;2023-03-14T07:48:08;0.88;;;0.43;;
27428;SDS011;14881;48.092;11.574;2023-03-14T07:50:37;0.40;;;0.40;;
27428;SDS011;14881;48.092;11.574;2023-03-14T07:53:05;0.60;;;0.60;;
27428;SDS011;14881;48.092;11.574;2023-03-14T07:55:32;2.03;;;1.17;;
27428;SDS011;14881;48.092;11.574;2023-03-14T07:58:00;1.23;;;1.13;;
27428;SDS011;14881;48.092;11.574;2023-03-14T08:00:28;1.80;;;1.13;;
27428;SDS011;14881;48.092;11.574;2023-03-14T08:02:56;0.63;;;0.63;;
27428;SDS011;14881;48.092;11.574;2023-03-14T08:05:24;0.63;;;0.63;;
27428;SDS011;14881;48.092;11.574;2023-03-14T08:07:53;0.88;;;0.70;;
27428;SDS011;14881;48.092;11.574;2023-03-14T08:10:21;0.75;;;0.70;;
27428;SDS011;14881;48.092;11.574;2023-03-14T08:12:49;0.63;;;0.63;;
27428;SDS011;14881;48.092;11.574;2023-03-14T08:15:17;0.73;;;0.73;;
27428;SDS011;14881;48.092;11.574;2023-03-14T08:17:45;0.80;;;0.70;;
27428;SDS011;14881;48.092;11.574;2023-03-14T08:20:17;0.80;;;0.70;;
27428;SDS011;14881;48.092;11.574;2023-03-14T08:22:45;1.00;;;0.80;;
27428;SDS011;14881;48.092;11.574;2023-03-14T08:25:14;0.50;;;0.50;;
27428;SDS011;14881;48.092;11.574;2023-03-14T08:27:43;0.50;;;0.50;;
27428;SDS011;14881;48.092;11.574;2023-03-14T08:30:12;0.70;;;0.60;;
27428;SDS011;14881;48.092;11.574;2023-03-14T08:32:41;0.50;;;0.50;;
27428;SDS011;14881;48.092;11.574;2023-03-14T08:35:09;0.70;;;0.70;;
27428;SDS011;14881;48.092;11.574;2023-03-14T08:37:37;0.55;;;0.55;;
27428;SDS011;14881;48.092;11.574;2023-03-14T08:40:05;1.27;;;1.15;;
27428;SDS011;14881;48.092;11.574;2023-03-14T08:42:36;0.80;;;0.80;;
27428;SDS011;14881;48.092;11.574;2023-03-14T08:45:05;0.60;;;0.60;;
27428;SDS011;14881;48.092;11.574;2023-03-14T08:47:34;1.55;;;1.15;;
27428;SDS011;14881;48.092;11.574;2023-03-14T08:50:02;1.75;;;1.40;;
27428;SDS011;14881;48.092;11.574;2023-03-14T08:52:30;1.00;;;0.80;;
27428;SDS011;14881;48.092;11.574;2023-03-14T08:54:58;0.90;;;0.82;;
27428;SDS011;14881;48.092;11.574;2023-03-14T08:57:26;0.77;;;0.77;;
27428;SDS011;14881;48.092;11.574;2023-03-14T08:59:55;1.02;;;0.90;;
27428;SDS011;14881;48.092;11.574;2023-03-14T09:02:24;2.35;;;0.73;;
27428;SDS011;14881;48.092;11.574;2023-03-14T09:04:56;2.38;;;0.68;;
27428;SDS011;14881;48.092;11.574;2023-03-14T09:07:25;0.70;;;0.70;;
27428;SDS011;14881;48.092;11.574;2023-03-14T09:09:53;0.40;;;0.40;;
27428;SDS011;14881;48.092;11.574;2023-03-14T09:12:21;1.38;;;0.63;;
27428;SDS011;14881;48.092;11.574;2023-03-14T09:14:48;0.52;;;0.50;;
27428;SDS011;14881;48.092;11.574;2023-03-14T09:17:18;0.77;;;0.60;;
27428;SDS011;14881;48.092;11.574;2023-03-14T09:19:46;0.57;;;0.57;;
27428;SDS011;14881;48.092;11.574;2023-03-14T09:22:13;0.85;;;0.50;;
27428;SDS011;14881;48.092;11.574;2023-03-14T09:24:42;0.93;;;0.70;;
27428;SDS011;14881;48.092;11.574;2023-03-14T09:27:10;1.67;;;0.60;;
27428;SDS011;14881;48.092;11.574;2023-03-14T09:29:41;0.70;;;0.70;;
27428;SDS011;14881;48.092;11.574;2023-03-14T09:32:08;0.63;;;0.63;;
27428;SDS011;14881;48.092;11.574;2023-03-14T09:34:37;0.98;;;0.77;;
27428;SDS011;14881;48.092;11.574;2023-03-14T09:37:06;1.98;;;0.70;;
27428;SDS011;14881;48.092;11.574;2023-03-14T09:39:34;1.15;;;0.70;;
27428;SDS011;14881;48.092;11.574;2023-03-14T09:42:03;1.55;;;0.70;;
27428;SDS011;14881;48.092;11.574;2023-03-14T09:44:34;0.75;;;0.75;;
27428;SDS011;14881;48.092;11.574;2023-03-14T09:47:06;1.08;;;0.77;;
27428;SDS011;14881;48.092;11.574;2023-03-14T09:49:43;0.65;;;0.50;;
27428;SDS011;14881;48.092;11.574;2023-03-14T09:52:11;0.68;;;0.60;;
27428;SDS011;14881;48.092;11.574;2023-03-14T09:54:42;3.70;;;0.70;;
27428;SDS011;14881;48.092;11.574;2023-03-14T09:57:13;0.60;;;0.52;;
27428;SDS011;14881;48.092;11.574;2023-03-14T09:59:44;0.60;;;0.60;;
27428;SDS011;14881;48.092;11.574;2023-03-14T10:02:15;0.73;;;0.73;;
27428;SDS011;14881;48.092;11.574;2023-03-14T10:04:47;0.80;;;0.70;;
27428;SDS011;14881;48.092;11.574;2023-03-14T10:07:17;0.77;;;0.70;;
27428;SDS011;14881;48.092;11.574;2023-03-14T10:09:49;1.58;;;0.85;;
27428;SDS011;14881;48.092;11.574;2023-03-14T10:12:18;2.47;;;1.70;;
27428;SDS011;14881;48.092;11.574;2023-03-14T10:14:47;1.42;;;1.00;;
27428;SDS011;14881;48.092;11.574;2023-03-14T10:17:17;1.10;;;1.00;;
27428;SDS011;14881;48.092;11.574;2023-03-14T10:19:54;0.80;;;0.80;;
27428;SDS011;14881;48.092;11.574;2023-03-14T10:22:24;1.05;;;0.90;;
27428;SDS011;14881;48.092;11.574;2023-03-14T10:24:59;2.78;;;1.00;;
27428;SDS011;14881;48.092;11.574;2023-03-14T10:27:30;1.40;;;0.77;;
27428;SDS011;14881;48.092;11.574;2023-03-14T10:30:00;0.73;;;0.73;;
27428;SDS011;14881;48.092;11.574;2023-03-14T10:32:31;2.10;;;0.77;;
27428;SDS011;14881;48.092;11.574;2023-03-14T10:35:08;0.85;;;0.60;;
27428;SDS011;14881;48.092;11.574;2023-03-14T10:37:50;1.90;;;1.65;;
27428;SDS011;14881;48.092;11.574;2023-03-14T10:40:20;0.70;;;0.70;;
27428;SDS011;14881;48.092;11.574;2023-03-14T10:42:54;0.88;;;0.70;;
27428;SDS011;14881;48.092;11.574;2023-03-14T10:45:25;1.38;;;0.80;;
27428;SDS011;14881;48.092;11.574;2023-03-14T10:48:06;0.80;;;0.75;;
27428;SDS011;14881;48.092;11.574;2023-03-14T10:50:50;0.70;;;0.70;;
27428;SDS011;14881;48.092;11.574;2023-03-14T10:53:22;0.70;;;0.63;;
27428;SDS011;14881;48.092;11.574;2023-03-14T10:55:52;1.55;;;0.63;;
27428;SDS011;14881;48.092;11.574;2023-03-14T10:58:24;0.77;;;0.70;;
27428;SDS011;14881;48.092;11.574;2023-03-14T11:01:00;0.80;;;0.80;;
27428;SDS011;14881;48.092;11.574;2023-03-14T11:03:36;1.55;;;0.80;;
27428;SDS011;14881;48.092;11.574;2023-03-14T11:06:09;0.60;;;0.60;;
27428;SDS011;14881;48.092;11.574;2023-03-14T11:08:42;0.70;;;0.63;;
27428;SDS011;14881;48.092;11.574;2023-03-14T11:11:17;0.85;;;0.57;;
27428;SDS011;14881;48.092;11.574;2023-03-14T11:13:51;2.17;;;0.70;;
27428;SDS011;14881;48.092;11.574;2023-03-14T11:16:30;0.93;;;0.70;;
27428;SDS011;14881;48.092;11.574;2023-03-14T11:22:07;0.82;;;0.82;;
27428;SDS011;14881;48.092;11.574;2023-03-14T11:24:48;2.10;;;0.63;;
27428;SDS011;14881;48.092;11.574;2023-03-14T11:27:25;2.75;;;0.70;;
27428;SDS011;14881;48.092;11.574;2023-03-14T11:30:02;0.70;;;0.68;;
27428;SDS011;14881;48.092;11.574;2023-03-14T11:32:42;0.68;;;0.68;;
27428;SDS011;14881;48.092;11.574;2023-03-14T11:35:16;1.17;;;0.90;;
27428;SDS011;14881;48.092;11.574;2023-03-14T11:37:50;0.55;;;0.55;;
27428;SDS011;14881;48.092;11.574;2023-03-14T11:40:21;4.05;;;0.60;;
27428;SDS011;14881;48.092;11.574;2023-03-14T11:42:53;2.08;;;0.63;;
27428;SDS011;14881;48.092;11.574;2023-03-14T11:48:01;1.58;;;0.52;;
27428;SDS011;14881;48.092;11.574;2023-03-14T11:50:40;0.65;;;0.50;;
27428;SDS011;14881;48.092;11.574;2023-03-14T11:53:13;0.65;;;0.40;;
27428;SDS011;14881;48.092;11.574;2023-03-14T11:55:44;0.50;;;0.50;;
27428;SDS011;14881;48.092;11.574;2023-03-14T11:58:14;0.98;;;0.70;;
27428;SDS011;14881;48.092;11.574;2023-03-14T12:00:47;0.63;;;0.40;;
27428;SDS011;14881;48.092;11.574;2023-03-14T12:03:21;0.40;;;0.40;;
27428;SDS011;14881;48.092;11.574;2023-03-14T12:06:00;1.77;;;0.52;;
27428;SDS011;14881;48.092;11.574;2023-03-14T12:11:37;1.00;;;0.60;;
27428;SDS011;14881;48.092;11.574;2023-03-14T12:14:17;0.50;;;0.50;;
27428;SDS011;14881;48.092;11.574;2023-03-14T12:16:48;0.60;;;0.60;;
27428;SDS011;14881;48.092;11.574;2023-03-14T12:22:08;0.63;;;0.52;;
27428;SDS011;14881;48.092;11.574;2023-03-14T12:24:50;0.60;;;0.60;;
27428;SDS011;14881;48.092;11.574;2023-03-14T12:27:41;1.95;;;0.60;;
27428;SDS011;14881;48.092;11.574;2023-03-14T12:30:15;0.50;;;0.50;;
27428;SDS011;14881;48.092;11.574;2023-03-14T12:39:20;0.60;;;0.40;;
27428;SDS011;14881;48.092;11.574;2023-03-14T12:42:00;0.57;;;0.57;;
27428;SDS011;14881;48.092;11.574;2023-03-14T12:50:43;2.25;;;0.57;;
27428;SDS011;14881;48.092;11.574;2023-03-14T12:56:21;0.30;;;0.30;;
27428;SDS011;14881;48.092;11.574;2023-03-14T12:59:05;0.40;;;0.40;;
27428;SDS011;14881;48.092;11.574;2023-03-14T13:01:45;0.50;;;0.40;;
27428;SDS011;14881;48.092;11.574;2023-03-14T13:04:15;0.40;;;0.40;;
27428;SDS011;14881;48.092;11.574;2023-03-14T13:06:52;0.55;;;0.55;;
27428;SDS011;14881;48.092;11.574;2023-03-14T13:12:30;0.43;;;0.43;;
27428;SDS011;14881;48.092;11.574;2023-03-14T13:15:15;0.50;;;0.50;;
27428;SDS011;14881;48.092;11.574;2023-03-14T13:17:49;1.20;;;0.80;;
27428;SDS011;14881;48.092;11.574;2023-03-14T13:20:22;0.40;;;0.40;;
27428;SDS011;14881;48.092;11.574;2023-03-14T13:22:55;0.40;;;0.40;;
27428;SDS011;14881;48.092;11.574;2023-03-14T13:25:23;0.50;;;0.50;;
27428;SDS011;14881;48.092;11.574;2023-03-14T13:27:52;0.40;;;0.40;;
27428;SDS011;14881;48.092;11.574;2023-03-14T13:30:24;0.45;;;0.45;;
27428;SDS011;14881;48.092;11.574;2023-03-14T13:32:54;0.50;;;0.50;;
27428;SDS011;14881;48.092;11.574;2023-03-14T13:35:25;1.85;;;0.47;;
27428;SDS011;14881;48.092;11.574;2023-03-14T13:37:56;0.40;;;0.40;;
27428;SDS011;14881;48.092;11.574;2023-03-14T13:40:37;0.57;;;0.30;;
27428;SDS011;14881;48.092;11.574;2023-03-14T13:43:11;2.45;;;0.40;;
27428;SDS011;14881;48.092;11.574;2023-03-14T13:45:48;0.40;;;0.40;;
27428;SDS011;14881;48.092;11.574;2023-03-14T13:48:18;0.50;;;0.47;;
27428;SDS011;14881;48.092;11.574;2023-03-14T13:50:49;2.15;;;0.68;;
27428;SDS011;14881;48.092;11.574;2023-03-14T13:53:19;4.75;;;0.98;;
27428;SDS011;14881;48.092;11.574;2023-03-14T13:55:49;0.43;;;0.43;;
27428;SDS011;14881;48.092;11.574;2023-03-14T13:58:22;0.40;;;0.40;;
27428;SDS011;14881;48.092;11.574;2023-03-14T14:01:10;0.50;;;0.50;;
27428;SDS011;14881;48.092;11.574;2023-03-14T14:03:42;0.52;;;0.40;;
27428;SDS011;14881;48.092;11.574;2023-03-14T14:06:22;0.40;;;0.40;;
27428;SDS011;14881;48.092;11.574;2023-03-14T14:08:57;0.38;;;0.38;;
27428;SDS011;14881;48.092;11.574;2023-03-14T14:11:35;1.17;;;0.30;;
27428;SDS011;14881;48.092;11.574;2023-03-14T14:14:19;0.40;;;0.40;;
27428;SDS011;14881;48.092;11.574;2023-03-14T14:16:50;0.40;;;0.40;;
27428;SDS011;14881;48.092;11.574;2023-03-14T14:19:22;0.55;;;0.55;;
27428;SDS011;14881;48.092;11.574;2023-03-14T14:21:52;0.25;;;0.25;;
27428;SDS011;14881;48.092;11.574;2023-03-14T14:24:21;0.40;;;0.40;;
27428;SDS011;14881;48.092;11.574;2023-03-14T14:26:52;0.80;;;0.40;;
27428;SDS011;14881;48.092;11.574;2023-03-14T14:29:27;0.95;;;0.40;;
27428;SDS011;14881;48.092;11.574;2023-03-14T14:32:09;1.52;;;0.50;;
27428;SDS011;14881;48.092;11.574;2023-03-14T14:34:40;0.80;;;0.57;;
27428;SDS011;14881;48.092;11.574;2023-03-14T14:37:19;0.30;;;0.30;;
27428;SDS011;14881;48.092;11.574;2023-03-14T14:39:52;0.35;;;0.35;;
27428;SDS011;14881;48.092;11.574;2023-03-14T14:42:24;0.63;;;0.50;;
27428;SDS011;14881;48.092;11.574;2023-03-14T14:44:55;0.95;;;0.43;;
27428;SDS011;14881;48.092;11.574;2023-03-14T14:47:26;0.63;;;0.45;;
27428;SDS011;14881;48.092;11.574;2023-03-14T14:49:58;0.30;;;0.30;;
27428;SDS011;14881;48.092;11.574;2023-03-14T14:52:33;0.80;;;0.55;;
27428;SDS011;14881;48.092;11.574;2023-03-14T14:55:10;0.32;;;0.32;;
27428;SDS011;14881;48.092;11.574;2023-03-14T14:57:40;0.50;;;0.50;;
27428;SDS011;14881;48.092;11.574;2023-03-14T15:00:17;0.30;;;0.30;;
27428;SDS011;14881;48.092;11.574;2023-03-14T15:02:48;0.90;;;0.40;;
27428;SDS011;14881;48.092;11.574;2023-03-14T15:05:21;0.50;;;0.50;;
27428;SDS011;14881;48.092;11.574;2023-03-14T15:07:50;0.30;;;0.30;;
27428;SDS011;14881;48.092;11.574;2023-03-14T15:10:19;0.38;;;0.32;;
27428;SDS011;14881;48.092;11.574;2023-03-14T15:12:48;0.40;;;0.40;;
27428;SDS011;14881;48.092;11.574;2023-03-14T15:15:16;0.43;;;0.43;;
27428;SDS011;14881;48.092;11.574;2023-03-14T15:17:45;0.50;;;0.50;;
27428;SDS011;14881;48.092;11.574;2023-03-14T15:20:15;0.50;;;0.50;;
27428;SDS011;14881;48.092;11.574;2023-03-14T15:22:44;0.90;;;0.40;;
27428;SDS011;14881;48.092;11.574;2023-03-14T15:25:12;0.60;;;0.60;;